createdAt,value
2022-12-22T00:02:30.584Z,97853.09
2022-12-22T00:05:16.455Z,97840.56
2022-12-22T00:08:02.171Z,97836.56
2022-12-22T00:10:47.873Z,97827.50
2022-12-22T00:13:35.144Z,97808.72
2022-12-22T00:16:23.192Z,97833.22
2022-12-22T00:19:08.929Z,97832.09
2022-12-22T00:21:54.571Z,97828.22
2022-12-22T00:24:40.171Z,97836.03
2022-12-22T00:27:27.424Z,97831.25
2022-12-22T00:30:14.094Z,97827.34
2022-12-22T00:32:59.668Z,97824.53
2022-12-22T00:35:45.380Z,97833.06
2022-12-22T00:38:32.626Z,97840.34
2022-12-22T00:41:18.267Z,97812.50
2022-12-22T00:44:03.889Z,97827.06
2022-12-22T00:46:54.640Z,97841.34
2022-12-22T00:49:41.572Z,97834.78
2022-12-22T00:52:27.203Z,97822.75
2022-12-22T00:55:12.923Z,97823.06
2022-12-22T00:57:59.765Z,97830.94
2022-12-22T01:00:45.983Z,97819.72
2022-12-22T01:03:33.060Z,97818.81
2022-12-22T01:06:20.410Z,97820.78
2022-12-22T01:09:06.307Z,97821.59
2022-12-22T01:11:52.012Z,97823.19
2022-12-22T01:14:37.728Z,97832.19
2022-12-22T01:17:23.570Z,97848.38
2022-12-22T01:20:10.445Z,97843.34
2022-12-22T01:22:55.757Z,97843.59
2022-12-22T01:25:41.201Z,97845.81
2022-12-22T01:28:31.686Z,97836.41
2022-12-22T01:31:38.146Z,97833.25
2022-12-22T01:34:23.823Z,97824.66
2022-12-22T01:37:13.040Z,97825.53
2022-12-22T01:39:58.827Z,97823.47
2022-12-22T01:42:44.884Z,97814.41
2022-12-22T01:45:37.927Z,97814.31
2022-12-22T01:48:23.711Z,97822.06
2022-12-22T01:51:09.436Z,97810.75
2022-12-22T01:53:56.644Z,97799.47
2022-12-22T01:56:43.890Z,97799.63
2022-12-22T01:59:29.425Z,97809.47
2022-12-22T02:02:17.301Z,97799.47
2022-12-22T02:05:05.739Z,97796.44
2022-12-22T02:07:59.129Z,97798.56
2022-12-22T02:10:55.187Z,97794.56
2022-12-22T02:13:43.644Z,97796.03
2022-12-22T02:16:33.389Z,97793.94
2022-12-22T02:19:23.489Z,97792.31
2022-12-22T02:22:13.920Z,97794.09
2022-12-22T02:25:02.379Z,97788.59
2022-12-22T02:27:50.615Z,97787.19
2022-12-22T02:30:36.282Z,97777.78
2022-12-22T02:33:22.779Z,97779.44
2022-12-22T02:36:13.841Z,97780.44
2022-12-22T02:39:01.741Z,97774.53
2022-12-22T02:41:52.007Z,97773.03
2022-12-22T02:44:43.676Z,97769.56
2022-12-22T02:47:32.342Z,97775.41
2022-12-22T02:50:21.409Z,97770.47
2022-12-22T02:53:07.521Z,97769.44
2022-12-22T02:55:53.373Z,97779.81
2022-12-22T02:58:41.976Z,97765.66
2022-12-22T03:01:29.163Z,97747.28
2022-12-22T03:04:14.879Z,97747.47
2022-12-22T03:07:00.530Z,97739.34
2022-12-22T03:09:46.135Z,97744.69
2022-12-22T03:12:31.704Z,97741.53
2022-12-22T03:15:17.490Z,97730.91
2022-12-22T03:18:04.416Z,97736.66
2022-12-22T03:20:50.021Z,97726.41
2022-12-22T03:23:35.584Z,97725.34
2022-12-22T03:26:06.091Z,97719.72
2022-12-22T03:28:34.173Z,97714.13
2022-12-22T03:31:03.482Z,97722.28
2022-12-22T03:33:33.399Z,97701.50
2022-12-22T03:36:01.870Z,97693.69
2022-12-22T03:38:30.398Z,97703.09
2022-12-22T03:40:58.423Z,97698.78
2022-12-22T03:43:45.369Z,97699.13
2022-12-22T03:46:32.413Z,97698.06
2022-12-22T03:49:11.372Z,97690.09
2022-12-22T03:51:40.656Z,97686.22
2022-12-22T03:54:08.937Z,97694.44
2022-12-22T03:56:37.181Z,97691.28
2022-12-22T03:59:05.281Z,97691.53
2022-12-22T04:01:34.035Z,97689.47
2022-12-22T04:04:03.637Z,97693.22
2022-12-22T04:06:31.733Z,97691.81
2022-12-22T04:09:01.951Z,97697.13
2022-12-22T04:11:47.937Z,97686.19
2022-12-22T04:14:16.104Z,97681.09
2022-12-22T04:16:44.313Z,97685.63
2022-12-22T04:19:16.334Z,97679.03
2022-12-22T04:21:45.276Z,97684.13
2022-12-22T04:24:15.960Z,97672.84
2022-12-22T04:26:44.043Z,97676.22
2022-12-22T04:29:12.140Z,97675.56
2022-12-22T04:31:40.258Z,97670.66
2022-12-22T04:34:08.340Z,97670.75
2022-12-22T04:36:37.761Z,97675.19
2022-12-22T04:39:05.917Z,97671.38
2022-12-22T04:41:34.142Z,97702.94
2022-12-22T04:44:06.806Z,97696.16
2022-12-22T04:46:34.909Z,97674.88
2022-12-22T04:49:02.986Z,97672.84
2022-12-22T04:51:30.960Z,97674.06
2022-12-22T04:54:00.366Z,97662.13
2022-12-22T04:56:28.419Z,97665.13
2022-12-22T04:58:56.459Z,97657.63
2022-12-22T05:01:24.581Z,97664.97
2022-12-22T05:03:52.731Z,97668.28
2022-12-22T05:06:22.040Z,97655.97
2022-12-22T05:08:51.357Z,97658.97
2022-12-22T05:11:21.045Z,97651.97
2022-12-22T05:13:49.308Z,97643.28
2022-12-22T05:16:17.884Z,97648.75
2022-12-22T05:18:46.640Z,97630.00
2022-12-22T05:21:16.010Z,97645.91
2022-12-22T05:23:46.757Z,97634.59
2022-12-22T05:26:15.556Z,97637.88
2022-12-22T05:28:46.290Z,97632.41
2022-12-22T05:31:16.573Z,97633.97
2022-12-22T05:33:44.633Z,97626.28
2022-12-22T05:36:12.745Z,97629.13
2022-12-22T05:38:41.167Z,97622.25
2022-12-22T05:41:09.157Z,97632.47
2022-12-22T05:43:37.513Z,97623.00
2022-12-22T05:46:07.684Z,97617.84
2022-12-22T05:48:39.154Z,97629.06
2022-12-22T05:51:08.043Z,97628.31
2022-12-22T05:53:36.361Z,97626.00
2022-12-22T05:56:04.709Z,97629.28
2022-12-22T05:58:32.888Z,97634.50
2022-12-22T06:01:01.418Z,97639.41
2022-12-22T06:03:31.729Z,97641.59
2022-12-22T06:06:00.336Z,97654.19
2022-12-22T06:08:28.721Z,97648.66
2022-12-22T06:10:57.174Z,97625.44
2022-12-22T06:13:26.027Z,97633.41
2022-12-22T06:15:54.421Z,97633.06
2022-12-22T06:18:22.671Z,97637.56
2022-12-22T06:20:53.668Z,97627.66
2022-12-22T06:23:22.019Z,97622.09
2022-12-22T06:25:55.809Z,97616.78
2022-12-22T06:28:24.337Z,97619.31
2022-12-22T06:30:52.572Z,97617.75
2022-12-22T06:33:21.118Z,97609.25
2022-12-22T06:35:53.979Z,97615.06
2022-12-22T06:38:27.409Z,97614.00
2022-12-22T06:40:55.447Z,97611.47
2022-12-22T06:43:22.495Z,97616.28
2022-12-22T06:45:50.557Z,97611.59
2022-12-22T06:48:18.712Z,97614.66
2022-12-22T06:50:46.829Z,97617.53
2022-12-22T06:53:15.079Z,97610.72
2022-12-22T06:55:44.403Z,97617.09
2022-12-22T06:58:12.563Z,97612.84
2022-12-22T07:00:40.640Z,97605.34
2022-12-22T07:03:09.594Z,97603.97
2022-12-22T07:05:38.007Z,97618.50
2022-12-22T07:08:09.144Z,97614.34
2022-12-22T07:10:55.476Z,97628.88
2022-12-22T07:13:25.457Z,97626.84
2022-12-22T07:16:02.136Z,97636.91
2022-12-22T07:18:32.264Z,97634.13
2022-12-22T07:21:00.683Z,97627.75
2022-12-22T07:23:28.773Z,97640.59
2022-12-22T07:25:57.093Z,97623.44
2022-12-22T07:28:28.825Z,97636.91
2022-12-22T07:30:56.943Z,97623.69
2022-12-22T07:33:27.925Z,97610.06
2022-12-22T07:36:05.563Z,97618.16
2022-12-22T07:38:35.989Z,97601.00
2022-12-22T07:41:24.857Z,97616.00
2022-12-22T07:43:54.899Z,97615.31
2022-12-22T07:46:23.444Z,97611.13
2022-12-22T07:49:09.802Z,97613.91
2022-12-22T07:51:42.816Z,97602.59
2022-12-22T07:54:13.171Z,97611.59
2022-12-22T07:56:42.240Z,97610.63
2022-12-22T07:59:12.267Z,97610.06
2022-12-22T08:01:41.653Z,97611.03
2022-12-22T08:04:10.786Z,97589.34
2022-12-22T08:06:39.722Z,97592.00
2022-12-22T08:09:09.200Z,97581.66
2022-12-22T08:11:37.866Z,97586.91
2022-12-22T08:14:06.067Z,97582.56
2022-12-22T08:16:35.745Z,97591.03
2022-12-22T08:19:03.916Z,97583.00
2022-12-22T08:21:31.940Z,97591.63
2022-12-22T08:24:00.076Z,97580.41
2022-12-22T08:26:32.232Z,97592.53
2022-12-22T08:29:04.505Z,97599.91
2022-12-22T08:31:32.867Z,97586.72
2022-12-22T08:34:04.051Z,97598.81
2022-12-22T08:36:33.922Z,97605.56
2022-12-22T08:39:02.785Z,97603.84
2022-12-22T08:41:48.884Z,97605.25
2022-12-22T08:44:18.326Z,97611.47
2022-12-22T08:46:46.751Z,97618.75
2022-12-22T08:49:16.292Z,97617.81
2022-12-22T08:51:47.438Z,97616.63
2022-12-22T08:54:15.471Z,97609.72
2022-12-22T08:56:43.892Z,97606.13
2022-12-22T08:59:12.456Z,97606.31
2022-12-22T09:01:42.757Z,97610.28
2022-12-22T09:04:13.207Z,97617.03
2022-12-22T09:06:42.599Z,97616.53
2022-12-22T09:09:11.462Z,97634.19
2022-12-22T09:11:40.232Z,97624.00
2022-12-22T09:14:09.091Z,97647.78
2022-12-22T09:16:37.750Z,97642.06
2022-12-22T09:19:06.351Z,97654.91
2022-12-22T09:21:34.448Z,97659.25
2022-12-22T09:24:04.474Z,97652.97
2022-12-22T09:26:33.265Z,97663.09
2022-12-22T09:29:01.496Z,97659.53
2022-12-22T09:31:30.067Z,97663.72
2022-12-22T09:33:58.682Z,97658.72
2022-12-22T09:36:29.278Z,97648.75
2022-12-22T09:38:57.370Z,97657.91
2022-12-22T09:41:31.692Z,97656.91
2022-12-22T09:44:03.554Z,97668.88
2022-12-22T09:46:33.527Z,97662.09
2022-12-22T09:49:01.795Z,97683.84
2022-12-22T09:51:30.431Z,97692.75
2022-12-22T09:53:59.864Z,97707.25
2022-12-22T09:56:31.602Z,97717.41
2022-12-22T09:59:01.401Z,97722.75
2022-12-22T10:01:34.498Z,97733.47
2022-12-22T10:04:07.686Z,97718.72
2022-12-22T10:06:44.547Z,97739.19
2022-12-22T10:09:46.161Z,97742.22
2022-12-22T10:12:16.359Z,97739.38
2022-12-22T10:14:46.851Z,97749.38
2022-12-22T10:17:17.288Z,97754.69
2022-12-22T10:19:45.752Z,97761.59
2022-12-22T10:22:20.716Z,97772.78
2022-12-22T10:24:48.899Z,97765.09
2022-12-22T10:27:23.054Z,97743.63
2022-12-22T10:29:54.025Z,97763.59
2022-12-22T10:32:23.224Z,97742.72
2022-12-22T10:34:59.712Z,97752.72
2022-12-22T10:37:35.484Z,97736.47
2022-12-22T10:40:14.598Z,97728.88
2022-12-22T10:42:48.069Z,97736.72
2022-12-22T10:45:20.246Z,97728.84
2022-12-22T10:47:49.763Z,97731.84
2022-12-22T10:50:18.542Z,97739.63
2022-12-22T10:52:51.604Z,97734.44
2022-12-22T10:55:20.738Z,97726.59
2022-12-22T10:57:50.824Z,97728.53
2022-12-22T11:00:26.945Z,97737.00
2022-12-22T11:02:55.666Z,97730.19
2022-12-22T11:05:23.848Z,97738.34
2022-12-22T11:07:52.281Z,97723.03
2022-12-22T11:10:28.482Z,97729.78
2022-12-22T11:13:17.641Z,97727.91
2022-12-22T11:15:49.747Z,97732.47
2022-12-22T11:18:27.383Z,97706.56
2022-12-22T11:21:03.116Z,97713.59
2022-12-22T11:23:39.650Z,97699.53
2022-12-22T11:26:16.358Z,97693.13
2022-12-22T11:29:03.121Z,97694.91
2022-12-22T11:31:53.200Z,97676.34
2022-12-22T11:34:28.240Z,97694.16
2022-12-22T11:37:02.275Z,97698.81
2022-12-22T11:39:37.424Z,97699.47
2022-12-22T11:42:10.265Z,97705.13
2022-12-22T11:44:47.264Z,97693.25
2022-12-22T11:47:20.886Z,97699.25
2022-12-22T11:50:59.767Z,97706.63
2022-12-22T11:53:42.645Z,97718.19
2022-12-22T11:56:21.706Z,97712.97
2022-12-22T11:59:11.729Z,97726.84
2022-12-22T12:01:51.522Z,97719.47
2022-12-22T12:04:40.645Z,97732.28
2022-12-22T12:07:20.548Z,97742.28
2022-12-22T12:09:54.376Z,97751.63
2022-12-22T12:12:27.897Z,97747.72
2022-12-22T12:15:05.367Z,97731.25
2022-12-22T12:17:42.057Z,97753.44
2022-12-22T12:20:22.491Z,97755.03
2022-12-22T12:22:56.688Z,97760.34
2022-12-22T12:25:29.196Z,97779.03
2022-12-22T12:28:12.238Z,97772.81
2022-12-22T12:30:44.799Z,97793.03
2022-12-22T12:33:19.224Z,97803.41
2022-12-22T12:35:57.638Z,97795.47
2022-12-22T12:41:32.093Z,97806.38
2022-12-22T12:44:04.157Z,97829.94
2022-12-22T12:46:53.781Z,97823.50
2022-12-22T12:49:54.434Z,97835.03
2022-12-22T12:53:07.372Z,97826.34
2022-12-22T12:55:54.375Z,97822.19
2022-12-22T12:58:49.608Z,97830.94
2022-12-22T13:01:55.720Z,97840.13
2022-12-22T13:05:12.089Z,97835.84
2022-12-22T13:08:20.462Z,97831.25
2022-12-22T13:11:10.784Z,97838.63
2022-12-22T13:13:53.447Z,97834.69
2022-12-22T13:16:35.032Z,97831.03
2022-12-22T13:19:19.821Z,97836.84
2022-12-22T13:21:54.429Z,97820.34
2022-12-22T13:24:29.195Z,97835.59
2022-12-22T13:27:06.872Z,97846.66
2022-12-22T13:29:44.268Z,97832.97
2022-12-22T13:32:23.430Z,97845.50
2022-12-22T13:37:49.397Z,97875.66
2022-12-22T13:40:18.778Z,97886.09
2022-12-22T13:42:49.672Z,97881.66
2022-12-22T13:45:35.558Z,97877.00
2022-12-22T13:48:07.115Z,97888.28
2022-12-22T13:50:37.624Z,97889.44
2022-12-22T13:53:07.611Z,97900.59
2022-12-22T13:55:36.442Z,97901.16
2022-12-22T13:58:07.680Z,97910.44
2022-12-22T14:00:35.931Z,97907.97
2022-12-22T14:03:08.884Z,97907.06
2022-12-22T14:05:37.353Z,97918.22
2022-12-22T14:08:06.349Z,97923.28
2022-12-22T14:10:35.865Z,97926.00
2022-12-22T14:13:09.051Z,97925.84
2022-12-22T14:15:37.149Z,97923.03
2022-12-22T14:18:05.628Z,97928.78
2022-12-22T14:20:35.762Z,97926.59
2022-12-22T14:23:07.241Z,97929.50
2022-12-22T14:25:37.407Z,97928.44
2022-12-22T14:28:07.919Z,97923.84
2022-12-22T14:30:38.854Z,97919.47
2022-12-22T14:33:18.611Z,97929.06
2022-12-22T14:35:47.038Z,97926.44
2022-12-22T14:38:20.395Z,97926.31
2022-12-22T14:40:54.621Z,97925.53
2022-12-22T14:43:30.704Z,97919.63
2022-12-22T14:46:08.086Z,97917.41
2022-12-22T14:48:39.972Z,97918.56
2022-12-22T14:51:10.369Z,97926.44
2022-12-22T14:53:44.836Z,97937.34
2022-12-22T14:56:13.608Z,97933.00
2022-12-22T14:58:43.975Z,97930.69
2022-12-22T15:01:13.973Z,97931.88
2022-12-22T15:03:42.741Z,97938.91
2022-12-22T15:06:24.213Z,97936.78
2022-12-22T15:08:57.627Z,97929.78
2022-12-22T15:11:25.686Z,97935.50
2022-12-22T15:13:55.079Z,97946.34
2022-12-22T15:16:23.866Z,97943.63
2022-12-22T15:18:53.250Z,97931.72
2022-12-22T15:21:22.851Z,97923.94
2022-12-22T15:23:50.869Z,97934.03
2022-12-22T15:26:18.956Z,97933.13
2022-12-22T15:28:47.137Z,97933.59
2022-12-22T15:31:17.588Z,97930.81
2022-12-22T15:33:46.046Z,97930.56
2022-12-22T15:36:14.879Z,97920.66
2022-12-22T15:38:42.974Z,97921.88
2022-12-22T15:41:11.112Z,97918.06
2022-12-22T15:43:58.590Z,97923.84
2022-12-22T15:46:31.392Z,97927.50
2022-12-22T15:48:59.449Z,97924.72
2022-12-22T15:51:29.001Z,97928.03
2022-12-22T15:53:58.321Z,97926.28
2022-12-22T15:56:28.092Z,97914.41
2022-12-22T15:58:56.698Z,97915.44
2022-12-22T16:01:24.836Z,97919.81
2022-12-22T16:03:54.362Z,97912.88
2022-12-22T16:06:25.168Z,97913.91
2022-12-22T16:08:55.583Z,97913.75
2022-12-22T16:11:23.933Z,97914.56
2022-12-22T16:13:54.642Z,97909.88
2022-12-22T16:16:22.727Z,97907.97
2022-12-22T16:18:52.080Z,97905.91
2022-12-22T16:21:26.873Z,97901.78
2022-12-22T16:23:55.575Z,97904.38
2022-12-22T16:26:23.813Z,97905.38
2022-12-22T16:28:54.003Z,97906.03
2022-12-22T16:31:22.960Z,97892.47
2022-12-22T16:33:51.574Z,97891.81
2022-12-22T16:36:21.052Z,97889.94
2022-12-22T16:38:49.177Z,97894.13
2022-12-22T16:41:19.785Z,97903.09
2022-12-22T16:43:51.230Z,97897.25
2022-12-22T16:46:20.450Z,97900.38
2022-12-22T16:48:52.797Z,97901.16
2022-12-22T16:51:25.113Z,97893.25
2022-12-22T16:53:53.483Z,97899.88
2022-12-22T16:56:23.312Z,97890.47
2022-12-22T16:58:51.386Z,97887.66
2022-12-22T17:01:29.313Z,97892.75
2022-12-22T17:03:58.756Z,97880.69
2022-12-22T17:06:28.664Z,97885.34
2022-12-22T17:08:57.167Z,97881.25
2022-12-22T17:11:27.514Z,97894.91
2022-12-22T17:13:59.240Z,97894.91
2022-12-22T17:16:27.383Z,97885.25
2022-12-22T17:18:55.427Z,97877.31
2022-12-22T17:21:23.489Z,97887.59
2022-12-22T17:23:54.588Z,97884.19
2022-12-22T17:26:26.341Z,97879.72
2022-12-22T17:28:54.481Z,97873.88
2022-12-22T17:31:23.430Z,97862.69
2022-12-22T17:33:51.851Z,97863.75
2022-12-22T17:36:24.479Z,97863.06
2022-12-22T17:38:54.955Z,97861.91
2022-12-22T17:41:23.093Z,97859.31
2022-12-22T17:43:51.209Z,97859.56
2022-12-22T17:46:20.516Z,97830.34
2022-12-22T17:48:49.135Z,97855.22
2022-12-22T17:51:18.557Z,97845.13
2022-12-22T17:53:47.368Z,97838.91
2022-12-22T17:56:21.029Z,97835.25
2022-12-22T17:58:49.464Z,97830.63
2022-12-22T18:01:20.309Z,97840.25
2022-12-22T18:03:48.642Z,97835.22
2022-12-22T18:06:19.828Z,97817.72
2022-12-22T18:08:48.107Z,97820.53
2022-12-22T18:11:18.254Z,97816.38
2022-12-22T18:13:47.810Z,97810.66
2022-12-22T18:16:17.079Z,97811.44
2022-12-22T18:18:45.542Z,97815.91
2022-12-22T18:21:17.237Z,97805.34
2022-12-22T18:23:49.845Z,97804.41
2022-12-22T18:26:23.405Z,97791.91
2022-12-22T18:28:53.403Z,97793.16
2022-12-22T18:31:22.423Z,97789.34
2022-12-22T18:33:51.006Z,97787.28
2022-12-22T18:36:20.676Z,97790.28
2022-12-22T18:38:49.324Z,97787.34
2022-12-22T18:41:20.953Z,97792.25
2022-12-22T18:43:49.052Z,97790.94
2022-12-22T18:46:18.845Z,97785.81
2022-12-22T18:48:48.172Z,97782.84
2022-12-22T18:51:20.586Z,97788.97
2022-12-22T18:53:49.656Z,97788.97
2022-12-22T18:56:17.915Z,97792.75
2022-12-22T18:58:46.643Z,97787.34
2022-12-22T19:01:20.230Z,97775.78
2022-12-22T19:03:48.700Z,97785.59
2022-12-22T19:06:20.716Z,97768.34
2022-12-22T19:08:49.333Z,97785.81
2022-12-22T19:11:18.487Z,97783.75
2022-12-22T19:13:48.082Z,97769.78
2022-12-22T19:16:18.481Z,97775.78
2022-12-22T19:18:48.127Z,97770.84
2022-12-22T19:21:16.811Z,97764.41
2022-12-22T19:23:45.148Z,97766.34
2022-12-22T19:26:19.225Z,97769.41
2022-12-22T19:28:47.505Z,97765.44
2022-12-22T19:31:20.121Z,97758.81
2022-12-22T19:33:50.492Z,97752.34
2022-12-22T19:36:19.860Z,97750.22
2022-12-22T19:38:51.063Z,97751.78
2022-12-22T19:41:33.825Z,97760.03
2022-12-22T19:44:02.138Z,97753.22
2022-12-22T19:46:32.481Z,97748.97
2022-12-22T19:49:02.425Z,97746.19
2022-12-22T19:51:31.375Z,97749.19
2022-12-22T19:53:59.526Z,97749.81
2022-12-22T19:56:29.759Z,97737.31
2022-12-22T19:58:59.358Z,97743.44
2022-12-22T20:01:27.618Z,97739.34
2022-12-22T20:03:56.072Z,97739.72
2022-12-22T20:06:25.505Z,97743.97
2022-12-22T20:08:54.162Z,97735.31
2022-12-22T20:11:22.272Z,97734.69
2022-12-22T20:13:50.356Z,97732.34
2022-12-22T20:16:18.523Z,97727.59
2022-12-22T20:18:47.291Z,97727.63
2022-12-22T20:21:17.432Z,97728.25
2022-12-22T20:23:48.200Z,97726.69
2022-12-22T20:26:17.483Z,97719.56
2022-12-22T20:28:45.625Z,97720.94
2022-12-22T20:31:14.686Z,97706.38
2022-12-22T20:33:43.501Z,97715.06
2022-12-22T20:36:16.728Z,97711.56
2022-12-22T20:38:45.260Z,97709.13
2022-12-22T20:41:14.900Z,97701.56
2022-12-22T20:43:43.215Z,97704.72
2022-12-22T20:46:13.434Z,97707.06
2022-12-22T20:48:43.717Z,97699.91
2022-12-22T20:51:13.821Z,97701.75
2022-12-22T20:53:42.562Z,97697.13
2022-12-22T20:56:20.556Z,97707.06
2022-12-22T20:58:48.617Z,97695.69
2022-12-22T21:01:16.855Z,97704.41
2022-12-22T21:03:45.033Z,97690.09
2022-12-22T21:06:26.260Z,97688.06
2022-12-22T21:08:54.819Z,97687.97
2022-12-22T21:11:24.529Z,97689.28
2022-12-22T21:13:52.879Z,97679.03
2022-12-22T21:16:23.036Z,97678.13
2022-12-22T21:18:54.120Z,97672.94
2022-12-22T21:21:22.389Z,97670.88
2022-12-22T21:23:50.609Z,97672.94
2022-12-22T21:26:21.585Z,97675.16
2022-12-22T21:28:52.075Z,97665.09
2022-12-22T21:31:20.252Z,97668.31
2022-12-22T21:33:50.134Z,97673.13
2022-12-22T21:36:22.606Z,97663.88
2022-12-22T21:38:52.763Z,97656.97
2022-12-22T21:41:40.767Z,97647.34
2022-12-22T21:44:12.440Z,97644.97
2022-12-22T21:46:40.895Z,97638.09
2022-12-22T21:49:16.113Z,97631.63
2022-12-22T21:51:44.135Z,97621.63
2022-12-22T21:54:14.502Z,97619.09
2022-12-22T21:56:42.529Z,97616.19
2022-12-22T22:02:38.796Z,97596.69
2022-12-22T22:05:35.933Z,97595.06
2022-12-22T22:08:06.443Z,97585.44
2022-12-22T22:10:38.745Z,97578.22
2022-12-22T22:13:07.837Z,97567.59
2022-12-22T22:15:36.342Z,97573.22
2022-12-22T22:18:07.565Z,97558.75
2022-12-22T22:20:36.072Z,97559.03
2022-12-22T22:23:04.690Z,97547.56
2022-12-22T22:25:33.081Z,97552.78
2022-12-22T22:28:01.524Z,97538.91
2022-12-22T22:30:29.934Z,97547.06
2022-12-22T22:32:58.316Z,97526.91
2022-12-22T22:35:28.416Z,97525.03
2022-12-22T22:37:56.705Z,97532.13
2022-12-22T22:40:25.093Z,97536.78
2022-12-22T22:42:53.782Z,97525.78
2022-12-22T22:45:24.182Z,97526.47
2022-12-22T22:47:53.454Z,97518.47
2022-12-22T22:50:23.133Z,97514.47
2022-12-22T22:52:52.779Z,97505.00
2022-12-22T22:55:21.056Z,97508.78
2022-12-22T22:57:49.663Z,97495.31
2022-12-22T23:00:21.695Z,97508.97
2022-12-22T23:02:50.127Z,97490.94
2022-12-22T23:05:22.676Z,97482.50
2022-12-22T23:07:52.812Z,97480.28
2022-12-22T23:10:21.156Z,97479.72
2022-12-22T23:12:49.437Z,97483.47
2022-12-22T23:15:19.877Z,97486.00
2022-12-22T23:17:48.137Z,97486.91
2022-12-22T23:20:16.587Z,97482.75
2022-12-22T23:22:44.971Z,97474.56
2022-12-22T23:25:14.620Z,97471.63
2022-12-22T23:27:42.928Z,97471.03
2022-12-22T23:30:12.099Z,97470.22
2022-12-22T23:32:40.364Z,97471.97
2022-12-22T23:35:09.278Z,97460.69
2022-12-22T23:37:37.592Z,97460.84
2022-12-22T23:42:57.375Z,97442.13
2022-12-22T23:45:25.710Z,97450.31
2022-12-22T23:47:54.022Z,97453.72
2022-12-22T23:50:22.442Z,97450.53
2022-12-22T23:52:51.911Z,97456.16
2022-12-22T23:55:20.848Z,97458.72
2022-12-22T23:57:52.305Z,97451.28
